createdAt,value
2018-11-13T00:00:24.981Z,58.34
2018-11-13T00:02:54.007Z,58.67
2018-11-13T00:05:23.004Z,58.39
2018-11-13T00:07:51.545Z,58.24
2018-11-13T00:10:33.853Z,58.67
2018-11-13T00:13:02.612Z,58.48
2018-11-13T00:15:31.028Z,58.51
2018-11-13T00:17:59.457Z,58.81
2018-11-13T00:20:27.930Z,58.04
2018-11-13T00:22:56.675Z,58.33
2018-11-13T00:25:25.101Z,58.55
2018-11-13T00:27:53.525Z,58.50
2018-11-13T00:30:23.479Z,58.44
2018-11-13T00:32:52.175Z,58.66
2018-11-13T00:35:21.247Z,58.68
2018-11-13T00:37:50.267Z,58.91
2018-11-13T00:40:19.252Z,58.18
2018-11-13T00:42:47.962Z,58.23
2018-11-13T00:45:16.452Z,58.99
2018-11-13T00:47:44.830Z,58.76
2018-11-13T00:50:16.158Z,58.28
2018-11-13T00:52:45.145Z,58.19
2018-11-13T00:55:13.717Z,59.02
2018-11-13T00:57:42.465Z,58.50
2018-11-13T01:00:14.575Z,58.44
2018-11-13T01:02:43.280Z,59.13
2018-11-13T01:05:13.544Z,58.46
2018-11-13T01:07:42.820Z,58.90
2018-11-13T01:10:13.594Z,58.79
2018-11-13T01:12:43.392Z,58.66
2018-11-13T01:15:13.357Z,58.93
2018-11-13T01:17:42.920Z,58.57
2018-11-13T01:20:11.550Z,58.98
2018-11-13T01:22:39.946Z,58.64
2018-11-13T01:25:09.835Z,59.29
2018-11-13T01:27:38.276Z,59.09
2018-11-13T01:30:08.959Z,59.15
2018-11-13T01:32:39.625Z,59.29
2018-11-13T01:35:10.151Z,59.10
2018-11-13T01:37:38.579Z,58.65
2018-11-13T01:40:17.234Z,58.89
2018-11-13T01:42:46.263Z,59.09
2018-11-13T01:45:15.851Z,58.68
2018-11-13T01:47:44.338Z,58.80
2018-11-13T01:50:13.660Z,58.79
2018-11-13T01:52:42.093Z,59.02
2018-11-13T01:55:11.901Z,58.82
2018-11-13T01:57:40.448Z,59.73
2018-11-13T02:00:15.817Z,59.54
2018-11-13T02:02:45.358Z,59.43
2018-11-13T02:05:13.822Z,59.78
2018-11-13T02:07:42.347Z,59.51
2018-11-13T02:10:11.025Z,59.43
2018-11-13T02:12:39.526Z,59.62
2018-11-13T02:15:08.835Z,59.91
2018-11-13T02:17:37.457Z,59.64
2018-11-13T02:20:09.353Z,59.38
2018-11-13T02:22:37.922Z,59.15
2018-11-13T02:25:09.295Z,59.87
2018-11-13T02:27:37.960Z,59.76
2018-11-13T02:30:08.438Z,59.55
2018-11-13T02:32:36.907Z,59.36
2018-11-13T02:35:06.661Z,59.55
2018-11-13T02:37:35.125Z,59.31
2018-11-13T02:40:03.894Z,59.45
2018-11-13T02:42:32.706Z,59.34
2018-11-13T02:45:01.345Z,59.81
2018-11-13T02:47:29.902Z,59.51
2018-11-13T02:49:58.349Z,59.75
2018-11-13T02:55:06.941Z,60.09
2018-11-13T02:57:35.416Z,59.31
2018-11-13T03:00:06.717Z,59.30
2018-11-13T03:02:35.141Z,59.94
2018-11-13T03:05:05.040Z,59.55
2018-11-13T03:07:33.459Z,59.83
2018-11-13T03:10:02.082Z,59.97
2018-11-13T03:12:30.694Z,59.56
2018-11-13T03:14:59.107Z,60.04
2018-11-13T03:17:27.549Z,60.20
2018-11-13T03:19:56.040Z,60.16
2018-11-13T03:22:24.485Z,60.20
2018-11-13T03:24:53.398Z,59.53
2018-11-13T03:27:21.855Z,59.73
2018-11-13T03:29:50.433Z,60.29
2018-11-13T03:32:18.924Z,59.94
2018-11-13T03:34:47.351Z,60.14
2018-11-13T03:37:16.089Z,60.39
2018-11-13T03:39:45.837Z,59.65
2018-11-13T03:42:14.273Z,60.30
2018-11-13T03:44:42.687Z,60.15
2018-11-13T03:47:11.092Z,60.29
2018-11-13T03:49:39.506Z,59.73
2018-11-13T03:52:08.012Z,60.04
2018-11-13T03:54:36.415Z,60.34
2018-11-13T03:57:04.956Z,60.54
2018-11-13T03:59:33.390Z,60.34
2018-11-13T04:02:02.063Z,59.61
2018-11-13T04:04:30.920Z,60.30
2018-11-13T04:06:59.337Z,60.67
2018-11-13T04:09:27.754Z,60.44
2018-11-13T04:11:56.203Z,59.96
2018-11-13T04:14:24.612Z,60.21
2018-11-13T04:16:53.057Z,60.03
2018-11-13T04:19:21.503Z,60.42
2018-11-13T04:21:54.609Z,60.09
2018-11-13T04:24:23.036Z,60.65
2018-11-13T04:26:51.491Z,60.40
2018-11-13T04:29:20.118Z,60.25
2018-11-13T04:31:48.567Z,60.18
2018-11-13T04:34:16.989Z,60.25
2018-11-13T04:36:45.558Z,60.13
2018-11-13T04:39:14.071Z,60.92
2018-11-13T04:41:42.528Z,60.26
2018-11-13T04:44:11.033Z,60.61
2018-11-13T04:46:39.626Z,60.64
2018-11-13T04:49:08.095Z,61.21
2018-11-13T04:51:36.580Z,61.24
2018-11-13T04:54:05.436Z,61.37
2018-11-13T04:56:34.024Z,61.14
2018-11-13T04:59:03.117Z,60.68
2018-11-13T05:01:31.558Z,60.90
2018-11-13T05:04:00.000Z,60.88
2018-11-13T05:06:29.080Z,61.56
2018-11-13T05:08:57.769Z,61.27
2018-11-13T05:11:27.054Z,61.18
2018-11-13T05:13:55.530Z,60.94
2018-11-13T05:16:24.043Z,61.60
2018-11-13T05:18:52.440Z,61.67
2018-11-13T05:21:20.849Z,61.18
2018-11-13T05:23:49.276Z,61.32
2018-11-13T05:26:17.726Z,61.24
2018-11-13T05:28:46.425Z,61.78
2018-11-13T05:31:14.841Z,61.50
2018-11-13T05:33:43.275Z,61.78
2018-11-13T05:36:12.045Z,61.75
2018-11-13T05:38:40.466Z,60.92
2018-11-13T05:41:09.051Z,61.52
2018-11-13T05:43:37.483Z,61.48
2018-11-13T05:46:06.169Z,61.56
2018-11-13T05:48:34.807Z,61.79
2018-11-13T05:51:03.345Z,61.49
2018-11-13T05:53:31.775Z,61.65
2018-11-13T05:56:00.185Z,61.61
2018-11-13T05:58:28.804Z,61.57
2018-11-13T06:00:57.339Z,61.75
2018-11-13T06:03:25.760Z,61.62
2018-11-13T06:05:54.337Z,61.91
2018-11-13T06:08:22.776Z,61.37
2018-11-13T06:10:51.255Z,61.72
2018-11-13T06:13:19.675Z,62.15
2018-11-13T06:15:48.279Z,61.71
2018-11-13T06:18:16.903Z,61.46
2018-11-13T06:20:45.316Z,61.70
2018-11-13T06:23:13.805Z,61.59
2018-11-13T06:25:42.182Z,62.27
2018-11-13T06:28:10.979Z,61.81
2018-11-13T06:30:39.437Z,61.71
2018-11-13T06:33:07.838Z,62.22
2018-11-13T06:35:36.259Z,62.01
2018-11-13T06:38:04.860Z,62.15
2018-11-13T06:40:33.284Z,62.14
2018-11-13T06:43:01.941Z,62.21
2018-11-13T06:45:30.372Z,61.81
2018-11-13T06:47:58.716Z,61.84
2018-11-13T06:50:27.297Z,62.28
2018-11-13T06:52:55.706Z,62.38
2018-11-13T06:55:27.187Z,62.09
2018-11-13T06:57:55.647Z,62.54
2018-11-13T07:00:25.001Z,62.52
2018-11-13T07:02:53.431Z,62.36
2018-11-13T07:05:21.801Z,62.02
2018-11-13T07:07:50.575Z,62.75
2018-11-13T07:10:20.450Z,62.55
2018-11-13T07:12:49.655Z,62.41
2018-11-13T07:15:19.450Z,62.18
2018-11-13T07:17:49.052Z,62.16
2018-11-13T07:20:18.590Z,62.17
2018-11-13T07:22:47.071Z,63.00
2018-11-13T07:25:15.555Z,62.32
2018-11-13T07:27:44.767Z,62.78
2018-11-13T07:30:14.454Z,62.65
2018-11-13T07:32:42.989Z,62.65
2018-11-13T07:35:13.556Z,62.74
2018-11-13T07:37:44.778Z,63.07
2018-11-13T07:40:13.246Z,62.47
2018-11-13T07:42:41.743Z,62.89
2018-11-13T07:45:12.718Z,62.95
2018-11-13T07:47:42.177Z,63.01
2018-11-13T07:50:11.339Z,62.47
2018-11-13T07:52:39.720Z,62.50
2018-11-13T07:55:09.698Z,63.15
2018-11-13T07:57:38.198Z,63.03
2018-11-13T08:00:18.047Z,62.79
2018-11-13T08:02:47.852Z,63.08
2018-11-13T08:05:16.453Z,62.79
2018-11-13T08:07:44.934Z,62.87
2018-11-13T08:10:13.616Z,62.78
2018-11-13T08:12:42.092Z,62.74
2018-11-13T08:15:13.250Z,63.08
2018-11-13T08:17:42.138Z,62.80
2018-11-13T08:20:13.032Z,62.98
2018-11-13T08:22:41.862Z,62.94
2018-11-13T08:25:10.937Z,63.24
2018-11-13T08:27:40.062Z,63.51
2018-11-13T08:30:12.616Z,62.83
2018-11-13T08:32:41.434Z,63.32
2018-11-13T08:35:09.957Z,63.53
2018-11-13T08:37:38.507Z,63.43
2018-11-13T08:40:10.556Z,63.54
2018-11-13T08:42:39.070Z,63.09
2018-11-13T08:45:08.639Z,63.64
2018-11-13T08:47:37.071Z,63.20
2018-11-13T08:50:05.939Z,63.03
2018-11-13T08:52:34.373Z,63.45
2018-11-13T08:55:03.080Z,63.26
2018-11-13T08:57:31.561Z,63.33
2018-11-13T09:00:00.106Z,63.71
2018-11-13T09:02:32.264Z,63.48
2018-11-13T09:05:00.865Z,63.74
2018-11-13T09:07:29.294Z,63.21
2018-11-13T09:09:57.721Z,63.57
2018-11-13T09:12:26.248Z,63.26
2018-11-13T09:14:55.000Z,63.67
2018-11-13T09:17:23.433Z,63.55
2018-11-13T09:19:51.862Z,63.58
2018-11-13T09:22:20.263Z,63.52
2018-11-13T09:24:48.645Z,63.14
2018-11-13T09:27:17.101Z,63.16
2018-11-13T09:29:45.528Z,63.65
2018-11-13T09:32:13.916Z,63.84
2018-11-13T09:34:42.339Z,63.26
2018-11-13T09:37:10.777Z,63.22
2018-11-13T09:39:39.167Z,63.27
2018-11-13T09:42:07.619Z,63.43
2018-11-13T09:44:35.991Z,63.69
2018-11-13T09:47:04.678Z,63.83
2018-11-13T09:49:33.088Z,63.35
2018-11-13T09:52:01.508Z,63.30
2018-11-13T09:54:29.966Z,63.62
2018-11-13T09:56:58.418Z,64.08
2018-11-13T09:59:26.880Z,64.07
2018-11-13T10:01:55.689Z,63.48
2018-11-13T10:04:24.284Z,63.60
2018-11-13T10:06:52.164Z,64.26
2018-11-13T10:09:20.601Z,63.59
2018-11-13T10:11:49.057Z,63.35
2018-11-13T10:14:17.455Z,63.81
2018-11-13T10:16:45.851Z,64.09
2018-11-13T10:19:14.264Z,64.13
2018-11-13T10:21:42.641Z,63.89
2018-11-13T10:24:11.047Z,64.18
2018-11-13T10:26:39.440Z,63.91
2018-11-13T10:29:07.865Z,64.17
2018-11-13T10:31:36.242Z,63.80
2018-11-13T10:34:04.783Z,63.67
2018-11-13T10:36:33.179Z,63.40
2018-11-13T10:39:01.593Z,64.10
2018-11-13T10:41:30.238Z,63.36
2018-11-13T10:43:58.509Z,63.42
2018-11-13T10:46:26.926Z,63.81
2018-11-13T10:48:55.417Z,64.23
2018-11-13T10:51:23.751Z,63.53
2018-11-13T10:53:52.141Z,63.97
2018-11-13T10:56:20.544Z,64.00
2018-11-13T10:58:56.087Z,63.68
2018-11-13T11:01:30.280Z,64.10
2018-11-13T11:05:06.406Z,64.00
2018-11-13T11:07:34.802Z,63.73
2018-11-13T11:10:04.097Z,64.22
2018-11-13T11:12:32.533Z,63.48
2018-11-13T11:15:00.919Z,63.68
2018-11-13T11:17:29.335Z,63.60
2018-11-13T11:19:57.752Z,63.80
2018-11-13T11:22:26.599Z,63.82
2018-11-13T11:24:55.286Z,64.29
2018-11-13T11:27:23.704Z,64.10
2018-11-13T11:29:52.685Z,63.85
2018-11-13T11:32:21.131Z,64.34
2018-11-13T11:34:49.586Z,63.80
2018-11-13T11:37:17.992Z,63.66
2018-11-13T11:39:46.450Z,64.00
2018-11-13T11:42:14.862Z,63.97
2018-11-13T11:44:43.332Z,64.49
2018-11-13T11:47:11.762Z,64.41
2018-11-13T11:49:40.202Z,64.20
2018-11-13T11:52:08.623Z,64.49
2018-11-13T11:54:37.047Z,64.49
2018-11-13T11:57:05.757Z,64.35
2018-11-13T11:59:34.145Z,64.30
2018-11-13T12:02:02.645Z,64.02
2018-11-13T12:04:31.068Z,64.12
2018-11-13T12:06:59.685Z,63.66
2018-11-13T12:09:28.079Z,64.03
2018-11-13T12:11:56.679Z,64.02
2018-11-13T12:14:25.527Z,63.94
2018-11-13T12:16:53.942Z,63.76
2018-11-13T12:19:22.378Z,63.71
2018-11-13T12:21:50.935Z,63.76
2018-11-13T12:24:19.724Z,63.23
2018-11-13T12:26:48.149Z,62.83
2018-11-13T12:29:16.549Z,62.43
2018-11-13T12:31:45.000Z,61.86
2018-11-13T12:34:13.680Z,62.12
2018-11-13T12:36:42.059Z,61.87
2018-11-13T12:39:11.176Z,61.48
2018-11-13T12:41:40.824Z,61.28
2018-11-13T12:44:09.577Z,61.62
2018-11-13T12:46:38.277Z,60.65
2018-11-13T12:49:06.626Z,60.30
2018-11-13T12:51:39.639Z,59.80
2018-11-13T12:54:08.134Z,59.74
2018-11-13T12:56:36.596Z,59.67
2018-11-13T12:59:05.091Z,59.80
2018-11-13T13:01:33.497Z,59.26
2018-11-13T13:04:01.945Z,59.90
2018-11-13T13:06:30.324Z,59.40
2018-11-13T13:08:58.711Z,59.12
2018-11-13T13:11:27.134Z,58.72
2018-11-13T13:14:01.177Z,58.65
2018-11-13T13:16:29.600Z,58.43
2018-11-13T13:18:58.041Z,57.99
2018-11-13T13:21:26.421Z,58.65
2018-11-13T13:23:54.862Z,57.66
2018-11-13T13:26:23.471Z,58.03
2018-11-13T13:28:51.931Z,56.83
2018-11-13T13:31:20.356Z,56.79
2018-11-13T13:33:48.786Z,56.59
2018-11-13T13:36:20.579Z,56.91
2018-11-13T13:38:49.260Z,56.02
2018-11-13T13:41:17.619Z,56.37
2018-11-13T13:43:46.050Z,56.28
2018-11-13T13:46:14.531Z,55.70
2018-11-13T13:48:43.264Z,55.77
2018-11-13T13:51:11.709Z,55.71
2018-11-13T13:53:40.230Z,54.92
2018-11-13T13:56:08.649Z,55.28
2018-11-13T13:58:37.053Z,55.58
2018-11-13T14:01:05.648Z,55.85
2018-11-13T14:03:34.784Z,55.76
2018-11-13T14:06:02.610Z,56.14
2018-11-13T14:08:30.984Z,56.23
2018-11-13T14:10:59.446Z,56.08
2018-11-13T14:13:27.871Z,55.72
2018-11-13T14:15:56.420Z,56.13
2018-11-13T14:18:24.834Z,55.37
2018-11-13T14:20:53.282Z,55.80
2018-11-13T14:23:21.685Z,55.89
2018-11-13T14:25:50.089Z,56.08
2018-11-13T14:28:18.526Z,55.40
2018-11-13T14:30:47.027Z,55.02
2018-11-13T14:33:15.447Z,55.12
2018-11-13T14:35:44.002Z,55.26
2018-11-13T14:38:12.334Z,54.41
2018-11-13T14:40:42.055Z,54.43
2018-11-13T14:43:10.754Z,54.48
2018-11-13T14:45:39.230Z,54.45
2018-11-13T14:48:08.524Z,53.57
2018-11-13T14:50:37.457Z,54.28
2018-11-13T14:53:07.040Z,53.66
2018-11-13T14:55:36.942Z,53.98
2018-11-13T14:58:07.312Z,53.12
2018-11-13T15:00:42.735Z,53.97
2018-11-13T15:03:12.616Z,52.95
2018-11-13T15:05:41.968Z,53.19
2018-11-13T15:08:10.841Z,53.20
2018-11-13T15:10:47.724Z,53.46
2018-11-13T15:13:16.594Z,53.19
2018-11-13T15:15:45.036Z,53.15
2018-11-13T15:18:17.497Z,53.34
2018-11-13T15:20:46.675Z,53.94
2018-11-13T15:23:16.424Z,54.01
2018-11-13T15:25:44.872Z,54.17
2018-11-13T15:28:13.629Z,54.01
2018-11-13T15:30:46.130Z,54.14
2018-11-13T15:33:20.775Z,53.28
2018-11-13T15:35:49.870Z,53.81
2018-11-13T15:38:18.386Z,54.30
2018-11-13T15:40:46.923Z,53.62
2018-11-13T15:43:15.381Z,54.16
2018-11-13T15:45:43.809Z,54.04
2018-11-13T15:48:13.174Z,53.81
2018-11-13T15:50:41.595Z,53.88
2018-11-13T15:53:10.452Z,53.62
2018-11-13T15:55:38.927Z,53.55
2018-11-13T15:58:07.739Z,53.94
2018-11-13T16:00:37.523Z,53.74
2018-11-13T16:03:15.929Z,53.67
2018-11-13T16:05:46.839Z,53.67
2018-11-13T16:08:15.269Z,54.35
2018-11-13T16:10:43.717Z,54.42
2018-11-13T16:13:12.321Z,53.76
2018-11-13T16:15:41.247Z,54.04
2018-11-13T16:18:11.695Z,54.76
2018-11-13T16:20:40.140Z,54.33
2018-11-13T16:23:08.643Z,54.34
2018-11-13T16:25:37.118Z,55.11
2018-11-13T16:28:05.642Z,55.15
2018-11-13T16:30:35.479Z,54.98
2018-11-13T16:33:04.118Z,55.54
2018-11-13T16:35:32.862Z,55.07
2018-11-13T16:38:02.798Z,55.17
2018-11-13T16:40:32.228Z,55.12
2018-11-13T16:43:01.075Z,55.32
2018-11-13T16:45:30.620Z,56.03
2018-11-13T16:47:59.672Z,55.83
2018-11-13T16:50:29.313Z,56.08
2018-11-13T16:52:58.332Z,55.98
2018-11-13T16:55:32.649Z,56.22
2018-11-13T16:58:02.325Z,56.83
2018-11-13T17:00:31.350Z,56.51
2018-11-13T17:03:00.088Z,56.62
2018-11-13T17:05:29.209Z,57.00
2018-11-13T17:07:57.686Z,56.92
2018-11-13T17:10:27.386Z,56.99
2018-11-13T17:12:56.453Z,57.29
2018-11-13T17:15:26.205Z,56.71
2018-11-13T17:17:55.794Z,57.37
2018-11-13T17:20:24.906Z,57.23
2018-11-13T17:22:53.359Z,57.61
2018-11-13T17:25:23.317Z,57.47
2018-11-13T17:27:52.715Z,57.23
2018-11-13T17:30:24.968Z,57.32
2018-11-13T17:32:54.652Z,58.00
2018-11-13T17:35:24.393Z,58.33
2018-11-13T17:37:54.313Z,57.72
2018-11-13T17:40:24.011Z,58.32
2018-11-13T17:42:53.853Z,58.36
2018-11-13T17:45:24.757Z,58.69
2018-11-13T17:47:53.227Z,58.71
2018-11-13T17:50:24.848Z,58.50
2018-11-13T17:52:53.370Z,58.68
2018-11-13T17:55:23.023Z,58.58
2018-11-13T17:57:54.663Z,58.98
2018-11-13T18:00:26.972Z,58.39
2018-11-13T18:02:55.750Z,59.53
2018-11-13T18:05:25.388Z,59.38
2018-11-13T18:07:54.639Z,59.43
2018-11-13T18:10:23.341Z,59.01
2018-11-13T18:12:52.047Z,59.59
2018-11-13T18:15:22.946Z,59.13
2018-11-13T18:17:52.016Z,59.45
2018-11-13T18:20:23.102Z,59.20
2018-11-13T18:22:51.715Z,59.30
2018-11-13T18:25:20.211Z,59.38
2018-11-13T18:27:50.116Z,59.63
2018-11-13T18:30:21.854Z,59.86
2018-11-13T18:32:50.602Z,59.74
2018-11-13T18:35:22.191Z,59.67
2018-11-13T18:37:51.652Z,59.57
2018-11-13T18:40:20.885Z,59.87
2018-11-13T18:42:50.284Z,59.45
2018-11-13T18:45:21.960Z,59.39
2018-11-13T18:47:50.704Z,60.17
2018-11-13T18:50:23.834Z,60.18
2018-11-13T18:52:52.266Z,60.37
2018-11-13T18:55:20.841Z,59.98
2018-11-13T18:57:49.288Z,60.35
2018-11-13T19:00:24.437Z,60.44
2018-11-13T19:02:52.975Z,59.98
2018-11-13T19:05:22.053Z,59.77
2018-11-13T19:07:50.717Z,60.43
2018-11-13T19:10:25.470Z,60.50
2018-11-13T19:12:55.644Z,60.35
2018-11-13T19:15:24.565Z,60.76
2018-11-13T19:17:53.594Z,60.42
2018-11-13T19:20:23.193Z,60.69
2018-11-13T19:22:52.067Z,60.60
2018-11-13T19:25:22.024Z,60.28
2018-11-13T19:27:51.017Z,60.54
2018-11-13T19:30:20.463Z,60.95
2018-11-13T19:32:48.792Z,60.74
2018-11-13T19:35:18.543Z,60.38
2018-11-13T19:37:47.136Z,60.86
2018-11-13T19:40:19.315Z,60.57
2018-11-13T19:42:48.601Z,60.80
2018-11-13T19:45:17.633Z,60.88
2018-11-13T19:47:46.216Z,61.09
2018-11-13T19:50:20.863Z,61.25
2018-11-13T19:52:49.352Z,61.05
2018-11-13T19:55:18.563Z,61.01
2018-11-13T19:57:47.361Z,60.96
2018-11-13T20:00:18.279Z,61.07
2018-11-13T20:02:47.795Z,61.09
2018-11-13T20:05:16.534Z,61.38
2018-11-13T20:07:45.947Z,61.02
2018-11-13T20:10:21.103Z,61.15
2018-11-13T20:12:50.644Z,61.20
2018-11-13T20:15:20.098Z,61.17
2018-11-13T20:17:48.630Z,61.29
2018-11-13T20:20:19.228Z,61.35
2018-11-13T20:22:48.794Z,61.35
2018-11-13T20:25:18.654Z,61.39
2018-11-13T20:27:47.499Z,61.43
2018-11-13T20:30:22.969Z,61.12
2018-11-13T20:32:51.454Z,61.46
2018-11-13T20:35:19.948Z,61.57
2018-11-13T20:37:49.172Z,61.46
2018-11-13T20:40:23.105Z,61.41
2018-11-13T20:42:53.040Z,61.53
2018-11-13T20:45:22.129Z,61.27
2018-11-13T20:47:50.693Z,61.83
2018-11-13T20:50:23.682Z,61.65
2018-11-13T20:52:52.174Z,61.90
2018-11-13T20:55:20.658Z,61.64
2018-11-13T20:57:49.102Z,61.69
2018-11-13T21:00:27.223Z,62.07
2018-11-13T21:02:55.764Z,61.87
2018-11-13T21:05:24.305Z,61.77
2018-11-13T21:07:52.857Z,61.70
2018-11-13T21:10:22.066Z,61.69
2018-11-13T21:12:51.576Z,61.93
2018-11-13T21:15:21.001Z,62.06
2018-11-13T21:17:49.466Z,62.18
2018-11-13T21:20:18.751Z,61.91
2018-11-13T21:22:47.375Z,61.82
2018-11-13T21:25:18.568Z,62.17
2018-11-13T21:27:55.466Z,62.03
2018-11-13T21:30:24.339Z,62.09
2018-11-13T21:32:53.132Z,62.13
2018-11-13T21:35:21.593Z,62.07
2018-11-13T21:37:51.350Z,62.38
2018-11-13T21:40:21.162Z,62.00
2018-11-13T21:42:50.724Z,62.17
2018-11-13T21:45:20.255Z,61.95
2018-11-13T21:47:48.774Z,62.09
2018-11-13T21:50:18.480Z,62.15
2018-11-13T21:52:46.929Z,62.25
2018-11-13T21:55:17.634Z,62.47
2018-11-13T21:57:46.260Z,62.16
2018-11-13T22:00:20.451Z,62.06
2018-11-13T22:02:51.610Z,62.12
2018-11-13T22:05:20.816Z,62.17
2018-11-13T22:07:49.254Z,62.60
2018-11-13T22:10:17.813Z,62.25
2018-11-13T22:12:46.735Z,62.42
2018-11-13T22:15:16.728Z,62.44
2018-11-13T22:17:45.593Z,62.48
2018-11-13T22:20:14.897Z,62.39
2018-11-13T22:22:43.535Z,62.65
2018-11-13T22:25:15.820Z,62.71
2018-11-13T22:27:45.474Z,62.70
2018-11-13T22:30:18.046Z,62.72
2018-11-13T22:32:46.811Z,62.57
2018-11-13T22:35:15.709Z,62.22
2018-11-13T22:37:44.357Z,62.71
2018-11-13T22:40:17.036Z,62.96
2018-11-13T22:42:45.763Z,62.88
2018-11-13T22:45:16.193Z,62.89
2018-11-13T22:47:44.585Z,62.77
2018-11-13T22:50:18.458Z,62.84
2018-11-13T22:52:47.190Z,63.19
2018-11-13T22:55:15.964Z,62.89
2018-11-13T22:57:45.210Z,63.10
2018-11-13T23:00:36.365Z,62.88
2018-11-13T23:03:08.038Z,62.84
2018-11-13T23:05:36.520Z,62.73
2018-11-13T23:08:06.025Z,62.87
2018-11-13T23:10:34.439Z,62.84
2018-11-13T23:13:03.432Z,63.16
2018-11-13T23:15:31.642Z,63.00
2018-11-13T23:18:00.106Z,63.14
2018-11-13T23:20:28.707Z,63.25
2018-11-13T23:22:57.369Z,63.03
2018-11-13T23:25:25.809Z,63.09
2018-11-13T23:27:54.291Z,63.14
2018-11-13T23:30:23.945Z,63.35
2018-11-13T23:32:52.913Z,63.34
2018-11-13T23:35:21.830Z,63.11
2018-11-13T23:37:51.501Z,63.01
2018-11-13T23:40:21.880Z,63.23
2018-11-13T23:42:50.708Z,62.53
2018-11-13T23:45:20.558Z,63.42
2018-11-13T23:47:49.335Z,63.38
2018-11-13T23:50:18.014Z,63.15
2018-11-13T23:52:47.306Z,63.20
2018-11-13T23:55:16.342Z,63.55
2018-11-13T23:57:45.299Z,63.45
